EDT,Max TemperatureF,Mean TemperatureF,Min TemperatureF,Max Dew PointF,MeanDew PointF,Min DewpointF,Max Humidity, Mean Humidity, Min Humidity, Max Sea Level PressureIn, Mean Sea Level PressureIn, Min Sea Level PressureIn, Max VisibilityMiles, Mean VisibilityMiles, Min VisibilityMiles, Max Wind SpeedMPH, Mean Wind SpeedMPH, Max Gust SpeedMPH,PrecipitationIn, CloudCover, Events, WindDirDegrees
2011-10-1,73,66,60,66,63,60,100,91,76,29.78,29.67,29.60,10,6,0,10,5,16,0.10,6,Fog-Rain-Thunderstorm,155
2011-10-2,73,66,57,63,60,53,94,87,69,29.94,29.81,29.77,10,8,2,10,4,20,0.17,6,Rain,35
2011-10-3,70,62,55,57,52,44,90,72,42,30.09,30.05,29.94,10,10,8,8,3,,0.06,6,Rain,141
2011-10-4,70,63,57,59,55,50,94,82,54,30.01,29.91,29.81,10,9,4,14,5,24,0.12,6,Rain,15
2011-10-5,64,58,53,55,49,31,94,72,43,30.20,29.94,29.82,10,9,2,12,8,25,0.07,6,Rain,343
2011-10-6,59,50,42,39,34,29,86,55,36,30.32,30.25,30.21,10,10,10,12,4,28,0.00,0,,326
2011-10-7,59,50,43,43,37,32,82,60,37,30.46,30.43,30.34,10,10,10,9,4,,0.00,0,,354
2011-10-8,73,64,55,59,52,46,89,68,43,30.43,30.39,30.33,10,10,10,8,5,,0.00,0,,240
2011-10-9,82,68,55,61,53,49,90,58,33,30.33,30.28,30.21,10,10,10,12,5,18,0.00,0,,299
2011-10-10,80,72,64,62,56,47,81,62,42,30.20,30.14,30.09,10,10,10,12,5,20,0.00,0,,305
2011-10-11,64,60,57,50,49,47,74,64,54,30.25,30.21,30.15,10,10,10,10,8,17,0.00,0,,54
2011-10-12,62,60,57,57,52,45,94,77,63,30.24,30.17,30.06,10,8,2,12,8,18,0.15,5,Rain,79
2011-10-13,69,64,59,67,62,57,100,94,93,30.05,29.84,29.77,7,2,0,15,9,23,0.99,8,Fog-Rain-Thunderstorm,138
2011-10-14,68,66,63,66,63,60,100,94,83,29.81,29.59,29.39,10,4,0,15,5,30,0.32,8,Fog-Rain,152
2011-10-15,68,64,60,61,51,45,94,65,48,29.73,29.60,29.42,10,10,10,22,14,38,0.01,1,,233
2011-10-16,66,62,57,53,41,34,67,46,34,29.83,29.78,29.75,10,10,10,16,11,30,0.00,2,Rain,242
2011-10-17,66,62,57,58,50,38,87,64,36,29.79,29.71,29.63,10,10,9,13,10,24,0.05,3,Rain,230
2011-10-18,70,64,59,55,51,41,87,68,37,29.97,29.88,29.78,10,10,10,9,6,16,0.00,1,,228
2011-10-19,69,63,57,66,60,52,100,90,75,29.97,29.79,29.60,10,5,1,20,8,31,1.27,7,Rain,99
2011-10-20,70,64,60,67,62,48,100,85,62,29.73,29.58,29.53,10,6,1,20,10,36,0.47,6,Rain,198
2011-10-21,62,58,50,48,46,43,77,64,54,29.98,29.87,29.75,10,10,10,17,11,28,0.00,3,,239
2011-10-22,63,56,48,46,44,42,80,68,50,30.08,30.02,29.98,10,10,10,12,3,17,0.00,4,,241
2011-10-23,57,50,44,48,44,41,93,78,57,30.16,30.11,30.07,10,10,2,6,1,,0.00,4,,305
2011-10-24,59,48,39,46,42,38,93,76,56,30.17,30.10,29.94,10,10,10,6,2,,0.00,0,,192
2011-10-25,59,54,48,51,41,32,100,66,47,29.96,29.90,29.84,10,10,7,17,5,28,0.03,2,Rain,299
2011-10-26,52,49,46,46,39,32,80,65,48,29.99,29.89,29.78,10,10,10,9,4,21,0.00,7,,349
2011-10-27,53,47,41,52,45,39,100,93,77,29.78,29.68,29.60,10,5,2,22,8,30,0.70,8,Rain,43
2011-10-28,46,42,37,38,31,25,93,69,46,30.26,30.09,29.83,10,10,10,10,7,23,0.02,5,Rain,336
2011-10-29,48,42,37,45,40,31,100,86,52,30.27,29.86,29.53,10,5,2,29,13,48,1.11,7,Rain,52
2011-10-30,45,42,36,45,38,28,100,85,55,30.29,29.66,29.37,10,5,2,23,17,48,0.54,7,Rain,6
2011-10-31,52,42,32,37,32,29,93,70,44,30.43,30.40,30.30,10,10,10,7,2,,0.00,0,Rain,302